sensor_id;sensor_type;location;lat;lon;timestamp;pressure;altitude;pressure_sealevel;temperature;humidity
75745;BME280;74462;51.366;-0.222;2024-01-06T00:00:21;100740.30;;;8.91;72.98
75745;BME280;74462;51.366;-0.222;2024-01-06T00:01:26;100743.27;;;8.92;73.08
75745;BME280;74462;51.366;-0.222;2024-01-06T00:02:30;100742.33;;;8.93;73.10
75745;BME280;74462;51.366;-0.222;2024-01-06T00:03:35;100743.36;;;8.93;73.15
75745;BME280;74462;51.366;-0.222;2024-01-06T00:04:39;100746.36;;;8.93;72.99
75745;BME280;74462;51.366;-0.222;2024-01-06T00:05:44;100746.34;;;8.93;72.98
75745;BME280;74462;51.366;-0.222;2024-01-06T00:06:48;100745.88;;;8.92;72.84
75745;BME280;74462;51.366;-0.222;2024-01-06T00:07:53;100746.58;;;8.93;73.02
75745;BME280;74462;51.366;-0.222;2024-01-06T00:08:57;100749.77;;;8.93;72.73
75745;BME280;74462;51.366;-0.222;2024-01-06T00:10:02;100749.27;;;8.92;73.06
75745;BME280;74462;51.366;-0.222;2024-01-06T00:11:07;100750.41;;;8.91;72.80
75745;BME280;74462;51.366;-0.222;2024-01-06T00:12:12;100749.55;;;8.91;72.75
75745;BME280;74462;51.366;-0.222;2024-01-06T00:13:16;100752.90;;;8.91;72.72
75745;BME280;74462;51.366;-0.222;2024-01-06T00:14:21;100754.40;;;8.90;72.51
75745;BME280;74462;51.366;-0.222;2024-01-06T00:15:25;100753.56;;;8.89;72.63
75745;BME280;74462;51.366;-0.222;2024-01-06T00:16:29;100753.17;;;8.90;72.66
75745;BME280;74462;51.366;-0.222;2024-01-06T00:17:34;100755.98;;;8.88;72.63
75745;BME280;74462;51.366;-0.222;2024-01-06T00:18:38;100759.35;;;8.88;72.45
75745;BME280;74462;51.366;-0.222;2024-01-06T00:19:43;100755.80;;;8.88;72.93
75745;BME280;74462;51.366;-0.222;2024-01-06T00:20:50;100757.61;;;8.87;72.88
75745;BME280;74462;51.366;-0.222;2024-01-06T00:21:54;100756.21;;;8.87;72.76
75745;BME280;74462;51.366;-0.222;2024-01-06T00:22:59;100755.73;;;8.86;72.73
75745;BME280;74462;51.366;-0.222;2024-01-06T00:24:04;100759.54;;;8.87;72.94
75745;BME280;74462;51.366;-0.222;2024-01-06T00:25:09;100759.86;;;8.88;73.05
75745;BME280;74462;51.366;-0.222;2024-01-06T00:26:14;100758.20;;;8.89;73.08
75745;BME280;74462;51.366;-0.222;2024-01-06T00:27:18;100760.25;;;8.90;72.87
75745;BME280;74462;51.366;-0.222;2024-01-06T00:28:23;100759.13;;;8.91;72.45
75745;BME280;74462;51.366;-0.222;2024-01-06T00:29:27;100758.96;;;8.90;72.69
75745;BME280;74462;51.366;-0.222;2024-01-06T00:30:32;100760.91;;;8.90;72.60
75745;BME280;74462;51.366;-0.222;2024-01-06T00:31:36;100762.58;;;8.89;72.22
75745;BME280;74462;51.366;-0.222;2024-01-06T00:32:41;100761.86;;;8.89;72.22
75745;BME280;74462;51.366;-0.222;2024-01-06T00:33:45;100760.52;;;8.88;72.39
75745;BME280;74462;51.366;-0.222;2024-01-06T00:34:49;100762.64;;;8.88;72.37
75745;BME280;74462;51.366;-0.222;2024-01-06T00:35:54;100765.95;;;8.89;72.49
75745;BME280;74462;51.366;-0.222;2024-01-06T00:36:59;100763.20;;;8.88;72.34
75745;BME280;74462;51.366;-0.222;2024-01-06T00:38:04;100764.88;;;8.87;72.37
75745;BME280;74462;51.366;-0.222;2024-01-06T00:39:08;100763.54;;;8.86;72.23
75745;BME280;74462;51.366;-0.222;2024-01-06T00:40:14;100764.19;;;8.84;72.28
75745;BME280;74462;51.366;-0.222;2024-01-06T00:41:18;100762.30;;;8.84;72.15
75745;BME280;74462;51.366;-0.222;2024-01-06T00:42:23;100761.95;;;8.81;72.09
75745;BME280;74462;51.366;-0.222;2024-01-06T00:43:27;100763.83;;;8.80;71.94
75745;BME280;74462;51.366;-0.222;2024-01-06T00:44:32;100763.95;;;8.78;71.94
75745;BME280;74462;51.366;-0.222;2024-01-06T00:45:37;100761.15;;;8.75;72.05
75745;BME280;74462;51.366;-0.222;2024-01-06T00:46:41;100759.27;;;8.74;72.02
75745;BME280;74462;51.366;-0.222;2024-01-06T00:47:46;100761.66;;;8.68;71.85
75745;BME280;74462;51.366;-0.222;2024-01-06T00:48:50;100763.38;;;8.69;71.96
75745;BME280;74462;51.366;-0.222;2024-01-06T00:49:55;100762.63;;;8.67;72.03
75745;BME280;74462;51.366;-0.222;2024-01-06T00:50:59;100761.41;;;8.67;72.41
75745;BME280;74462;51.366;-0.222;2024-01-06T00:52:05;100761.27;;;8.64;72.39
75745;BME280;74462;51.366;-0.222;2024-01-06T00:53:10;100763.59;;;8.64;72.25
75745;BME280;74462;51.366;-0.222;2024-01-06T00:54:15;100763.71;;;8.61;72.36
75745;BME280;74462;51.366;-0.222;2024-01-06T00:55:20;100762.96;;;8.59;72.34
75745;BME280;74462;51.366;-0.222;2024-01-06T00:56:25;100761.76;;;8.59;72.76
75745;BME280;74462;51.366;-0.222;2024-01-06T00:57:30;100763.61;;;8.58;72.75
75745;BME280;74462;51.366;-0.222;2024-01-06T00:58:35;100764.97;;;8.56;72.85
75745;BME280;74462;51.366;-0.222;2024-01-06T00:59:39;100768.15;;;8.56;72.77
75745;BME280;74462;51.366;-0.222;2024-01-06T01:00:43;100765.45;;;8.57;72.90
75745;BME280;74462;51.366;-0.222;2024-01-06T01:01:48;100764.20;;;8.57;73.19
75745;BME280;74462;51.366;-0.222;2024-01-06T01:02:52;100767.05;;;8.57;73.30
75745;BME280;74462;51.366;-0.222;2024-01-06T01:03:57;100766.38;;;8.56;73.53
75745;BME280;74462;51.366;-0.222;2024-01-06T01:05:02;100766.14;;;8.57;73.22
75745;BME280;74462;51.366;-0.222;2024-01-06T01:06:06;100772.77;;;8.58;73.34
75745;BME280;74462;51.366;-0.222;2024-01-06T01:07:11;100771.04;;;8.58;73.25
75745;BME280;74462;51.366;-0.222;2024-01-06T01:08:16;100773.63;;;8.59;73.32
75745;BME280;74462;51.366;-0.222;2024-01-06T01:09:20;100773.86;;;8.60;73.51
75745;BME280;74462;51.366;-0.222;2024-01-06T01:10:25;100774.48;;;8.62;73.29
75745;BME280;74462;51.366;-0.222;2024-01-06T01:11:30;100776.48;;;8.64;73.28
75745;BME280;74462;51.366;-0.222;2024-01-06T01:12:34;100777.79;;;8.65;73.29
75745;BME280;74462;51.366;-0.222;2024-01-06T01:13:39;100777.69;;;8.67;73.20
75745;BME280;74462;51.366;-0.222;2024-01-06T01:14:43;100778.15;;;8.68;73.50
75745;BME280;74462;51.366;-0.222;2024-01-06T01:15:48;100778.59;;;8.69;73.61
75745;BME280;74462;51.366;-0.222;2024-01-06T01:16:53;100777.13;;;8.70;73.46
75745;BME280;74462;51.366;-0.222;2024-01-06T01:17:57;100779.76;;;8.70;73.56
75745;BME280;74462;51.366;-0.222;2024-01-06T01:19:02;100782.05;;;8.70;73.52
75745;BME280;74462;51.366;-0.222;2024-01-06T01:20:08;100778.86;;;8.70;73.41
75745;BME280;74462;51.366;-0.222;2024-01-06T01:21:13;100785.58;;;8.70;73.35
75745;BME280;74462;51.366;-0.222;2024-01-06T01:22:18;100784.26;;;8.71;73.31
75745;BME280;74462;51.366;-0.222;2024-01-06T01:23:22;100786.65;;;8.72;73.35
75745;BME280;74462;51.366;-0.222;2024-01-06T01:24:27;100785.06;;;8.72;73.50
75745;BME280;74462;51.366;-0.222;2024-01-06T01:25:31;100782.38;;;8.73;73.37
75745;BME280;74462;51.366;-0.222;2024-01-06T01:26:36;100784.98;;;8.74;73.34
75745;BME280;74462;51.366;-0.222;2024-01-06T01:27:41;100786.20;;;8.74;73.43
75745;BME280;74462;51.366;-0.222;2024-01-06T01:28:45;100784.39;;;8.74;73.05
75745;BME280;74462;51.366;-0.222;2024-01-06T01:29:50;100784.61;;;8.74;72.90
75745;BME280;74462;51.366;-0.222;2024-01-06T01:30:55;100785.12;;;8.74;73.04
75745;BME280;74462;51.366;-0.222;2024-01-06T01:32:00;100789.44;;;8.73;72.90
75745;BME280;74462;51.366;-0.222;2024-01-06T01:33:05;100790.66;;;8.73;72.98
75745;BME280;74462;51.366;-0.222;2024-01-06T01:34:10;100786.91;;;8.71;72.49
75745;BME280;74462;51.366;-0.222;2024-01-06T01:35:14;100790.98;;;8.71;72.41
75745;BME280;74462;51.366;-0.222;2024-01-06T01:36:19;100791.77;;;8.70;72.50
75745;BME280;74462;51.366;-0.222;2024-01-06T01:37:23;100793.30;;;8.69;72.70
75745;BME280;74462;51.366;-0.222;2024-01-06T01:38:28;100796.52;;;8.68;72.57
75745;BME280;74462;51.366;-0.222;2024-01-06T01:39:35;100795.89;;;8.67;72.46
75745;BME280;74462;51.366;-0.222;2024-01-06T01:40:39;100800.20;;;8.66;72.75
75745;BME280;74462;51.366;-0.222;2024-01-06T01:41:44;100798.11;;;8.63;72.73
75745;BME280;74462;51.366;-0.222;2024-01-06T01:42:49;100799.77;;;8.62;72.70
75745;BME280;74462;51.366;-0.222;2024-01-06T01:43:53;100803.13;;;8.57;72.85
75745;BME280;74462;51.366;-0.222;2024-01-06T01:45:01;100803.85;;;8.57;72.52
75745;BME280;74462;51.366;-0.222;2024-01-06T01:46:06;100801.70;;;8.57;72.69
75745;BME280;74462;51.366;-0.222;2024-01-06T01:47:11;100806.27;;;8.58;73.00
75745;BME280;74462;51.366;-0.222;2024-01-06T01:48:16;100806.80;;;8.58;72.97
75745;BME280;74462;51.366;-0.222;2024-01-06T01:49:21;100807.83;;;8.58;73.15
75745;BME280;74462;51.366;-0.222;2024-01-06T01:50:26;100806.00;;;8.57;72.72
75745;BME280;74462;51.366;-0.222;2024-01-06T01:51:35;100804.09;;;8.56;73.08
75745;BME280;74462;51.366;-0.222;2024-01-06T01:52:42;100808.14;;;8.56;73.16
75745;BME280;74462;51.366;-0.222;2024-01-06T01:53:46;100807.06;;;8.57;73.37
75745;BME280;74462;51.366;-0.222;2024-01-06T01:54:53;100807.19;;;8.57;73.44
75745;BME280;74462;51.366;-0.222;2024-01-06T01:55:58;100808.70;;;8.59;73.47
75745;BME280;74462;51.366;-0.222;2024-01-06T01:57:04;100809.54;;;8.59;73.66
75745;BME280;74462;51.366;-0.222;2024-01-06T01:58:09;100810.33;;;8.60;73.68
75745;BME280;74462;51.366;-0.222;2024-01-06T01:59:15;100807.44;;;8.61;73.84
75745;BME280;74462;51.366;-0.222;2024-01-06T02:00:22;100811.55;;;8.64;73.77
75745;BME280;74462;51.366;-0.222;2024-01-06T02:01:26;100813.71;;;8.65;73.93
75745;BME280;74462;51.366;-0.222;2024-01-06T02:02:31;100816.16;;;8.66;73.64
75745;BME280;74462;51.366;-0.222;2024-01-06T02:03:36;100816.85;;;8.66;73.76
75745;BME280;74462;51.366;-0.222;2024-01-06T02:04:41;100819.65;;;8.69;73.85
75745;BME280;74462;51.366;-0.222;2024-01-06T02:05:46;100822.05;;;8.70;73.45
75745;BME280;74462;51.366;-0.222;2024-01-06T02:06:51;100820.39;;;8.71;73.64
75745;BME280;74462;51.366;-0.222;2024-01-06T02:07:56;100824.94;;;8.72;73.51
75745;BME280;74462;51.366;-0.222;2024-01-06T02:09:00;100826.15;;;8.72;73.49
75745;BME280;74462;51.366;-0.222;2024-01-06T02:10:07;100825.93;;;8.73;73.39
75745;BME280;74462;51.366;-0.222;2024-01-06T02:11:13;100825.34;;;8.73;73.63
75745;BME280;74462;51.366;-0.222;2024-01-06T02:12:18;100824.40;;;8.74;73.66
75745;BME280;74462;51.366;-0.222;2024-01-06T02:13:23;100825.65;;;8.74;72.98
75745;BME280;74462;51.366;-0.222;2024-01-06T02:14:27;100826.89;;;8.74;73.08
75745;BME280;74462;51.366;-0.222;2024-01-06T02:15:32;100827.63;;;8.74;72.97
75745;BME280;74462;51.366;-0.222;2024-01-06T02:16:37;100825.38;;;8.73;72.86
75745;BME280;74462;51.366;-0.222;2024-01-06T02:17:42;100828.45;;;8.72;72.76
75745;BME280;74462;51.366;-0.222;2024-01-06T02:18:46;100831.56;;;8.71;72.45
75745;BME280;74462;51.366;-0.222;2024-01-06T02:19:51;100831.84;;;8.69;72.92
75745;BME280;74462;51.366;-0.222;2024-01-06T02:20:59;100831.63;;;8.67;72.72
75745;BME280;74462;51.366;-0.222;2024-01-06T02:22:04;100830.69;;;8.66;72.79
75745;BME280;74462;51.366;-0.222;2024-01-06T02:23:09;100833.58;;;8.65;72.73
75745;BME280;74462;51.366;-0.222;2024-01-06T02:24:13;100836.98;;;8.64;73.22
75745;BME280;74462;51.366;-0.222;2024-01-06T02:25:19;100835.58;;;8.64;73.46
75745;BME280;74462;51.366;-0.222;2024-01-06T02:26:24;100836.83;;;8.64;73.39
75745;BME280;74462;51.366;-0.222;2024-01-06T02:27:28;100838.80;;;8.64;73.38
75745;BME280;74462;51.366;-0.222;2024-01-06T02:28:35;100841.48;;;8.63;73.33
75745;BME280;74462;51.366;-0.222;2024-01-06T02:29:39;100843.83;;;8.63;73.41
75745;BME280;74462;51.366;-0.222;2024-01-06T02:30:44;100841.92;;;8.62;73.29
75745;BME280;74462;51.366;-0.222;2024-01-06T02:31:48;100843.65;;;8.60;73.61
75745;BME280;74462;51.366;-0.222;2024-01-06T02:32:55;100848.11;;;8.59;73.39
75745;BME280;74462;51.366;-0.222;2024-01-06T02:34:00;100847.75;;;8.59;73.48
75745;BME280;74462;51.366;-0.222;2024-01-06T02:35:05;100844.87;;;8.58;73.36
75745;BME280;74462;51.366;-0.222;2024-01-06T02:36:09;100849.17;;;8.57;73.52
75745;BME280;74462;51.366;-0.222;2024-01-06T02:37:14;100847.86;;;8.53;73.57
75745;BME280;74462;51.366;-0.222;2024-01-06T02:38:18;100854.41;;;8.53;73.73
75745;BME280;74462;51.366;-0.222;2024-01-06T02:39:23;100850.51;;;8.53;73.85
75745;BME280;74462;51.366;-0.222;2024-01-06T02:40:28;100854.71;;;8.54;73.98
75745;BME280;74462;51.366;-0.222;2024-01-06T02:41:32;100853.23;;;8.54;73.89
75745;BME280;74462;51.366;-0.222;2024-01-06T02:42:37;100853.49;;;8.53;73.71
75745;BME280;74462;51.366;-0.222;2024-01-06T02:43:41;100855.21;;;8.54;74.02
75745;BME280;74462;51.366;-0.222;2024-01-06T02:44:46;100856.27;;;8.54;73.95
75745;BME280;74462;51.366;-0.222;2024-01-06T02:45:50;100859.29;;;8.54;73.99
75745;BME280;74462;51.366;-0.222;2024-01-06T02:46:55;100858.56;;;8.54;74.08
75745;BME280;74462;51.366;-0.222;2024-01-06T02:47:59;100858.61;;;8.53;74.21
75745;BME280;74462;51.366;-0.222;2024-01-06T02:49:04;100859.90;;;8.53;74.05
75745;BME280;74462;51.366;-0.222;2024-01-06T02:50:09;100861.44;;;8.54;74.25
75745;BME280;74462;51.366;-0.222;2024-01-06T02:51:13;100862.08;;;8.55;74.20
75745;BME280;74462;51.366;-0.222;2024-01-06T02:52:18;100862.56;;;8.55;74.24
75745;BME280;74462;51.366;-0.222;2024-01-06T02:53:23;100863.50;;;8.55;74.14
75745;BME280;74462;51.366;-0.222;2024-01-06T02:54:28;100866.40;;;8.56;74.25
75745;BME280;74462;51.366;-0.222;2024-01-06T02:55:32;100868.81;;;8.57;74.17
75745;BME280;74462;51.366;-0.222;2024-01-06T02:56:37;100869.31;;;8.57;74.12
75745;BME280;74462;51.366;-0.222;2024-01-06T06:20:21;101082.68;;;7.17;77.51
75745;BME280;74462;51.366;-0.222;2024-01-06T06:21:26;101088.46;;;7.36;76.85
75745;BME280;74462;51.366;-0.222;2024-01-06T06:22:30;101090.09;;;7.39;76.96
75745;BME280;74462;51.366;-0.222;2024-01-06T06:23:35;101092.68;;;7.43;76.69
75745;BME280;74462;51.366;-0.222;2024-01-06T06:34:35;101087.82;;;7.67;74.09
75745;BME280;74462;51.366;-0.222;2024-01-06T06:35:39;101088.95;;;7.66;73.74
75745;BME280;74462;51.366;-0.222;2024-01-06T06:36:44;101089.01;;;7.68;74.14
75745;BME280;74462;51.366;-0.222;2024-01-06T06:37:49;101091.09;;;7.68;74.27
75745;BME280;74462;51.366;-0.222;2024-01-06T06:38:53;101095.52;;;7.71;74.21
75745;BME280;74462;51.366;-0.222;2024-01-06T06:40:01;101095.95;;;7.73;73.83
75745;BME280;74462;51.366;-0.222;2024-01-06T06:41:05;101099.01;;;7.75;73.83
75745;BME280;74462;51.366;-0.222;2024-01-06T06:42:10;101107.98;;;7.75;73.67
75745;BME280;74462;51.366;-0.222;2024-01-06T06:43:15;101107.70;;;7.77;74.11
75745;BME280;74462;51.366;-0.222;2024-01-06T06:44:20;101113.27;;;7.78;74.12
75745;BME280;74462;51.366;-0.222;2024-01-06T06:45:24;101114.58;;;7.80;73.98
75745;BME280;74462;51.366;-0.222;2024-01-06T06:46:29;101114.72;;;7.81;73.07
75745;BME280;74462;51.366;-0.222;2024-01-06T06:47:33;101116.64;;;7.81;73.15
75745;BME280;74462;51.366;-0.222;2024-01-06T06:48:37;101114.89;;;7.81;73.39
75745;BME280;74462;51.366;-0.222;2024-01-06T06:49:43;101120.97;;;7.83;72.82
75745;BME280;74462;51.366;-0.222;2024-01-06T06:50:48;101121.76;;;7.84;73.21
75745;BME280;74462;51.366;-0.222;2024-01-06T06:51:52;101122.32;;;7.86;73.24
75745;BME280;74462;51.366;-0.222;2024-01-06T06:52:59;101121.05;;;7.90;73.51
75745;BME280;74462;51.366;-0.222;2024-01-06T06:54:04;101125.97;;;7.93;73.61
75745;BME280;74462;51.366;-0.222;2024-01-06T06:55:10;101130.02;;;7.96;73.88
75745;BME280;74462;51.366;-0.222;2024-01-06T06:56:14;101134.11;;;7.98;73.54
75745;BME280;74462;51.366;-0.222;2024-01-06T06:57:20;101138.78;;;8.00;73.24
75745;BME280;74462;51.366;-0.222;2024-01-06T06:58:24;101139.98;;;8.00;72.91
75745;BME280;74462;51.366;-0.222;2024-01-06T06:59:29;101137.85;;;8.01;72.39
75745;BME280;74462;51.366;-0.222;2024-01-06T07:00:34;101141.57;;;8.00;71.96
75745;BME280;74462;51.366;-0.222;2024-01-06T07:01:39;101141.38;;;8.01;71.62
75745;BME280;74462;51.366;-0.222;2024-01-06T07:02:43;101143.14;;;8.01;71.86
75745;BME280;74462;51.366;-0.222;2024-01-06T07:03:47;101144.02;;;8.01;71.93
75745;BME280;74462;51.366;-0.222;2024-01-06T07:04:52;101145.66;;;8.03;72.13
75745;BME280;74462;51.366;-0.222;2024-01-06T07:05:56;101145.69;;;8.03;71.67
75745;BME280;74462;51.366;-0.222;2024-01-06T07:07:01;101148.13;;;8.04;71.74
75745;BME280;74462;51.366;-0.222;2024-01-06T07:08:06;101148.13;;;8.04;71.77
75745;BME280;74462;51.366;-0.222;2024-01-06T07:09:10;101147.92;;;8.05;72.05
75745;BME280;74462;51.366;-0.222;2024-01-06T07:10:15;101150.73;;;8.05;72.24
75745;BME280;74462;51.366;-0.222;2024-01-06T07:11:20;101150.41;;;8.04;72.18
75745;BME280;74462;51.366;-0.222;2024-01-06T07:12:25;101150.21;;;8.04;72.09
75745;BME280;74462;51.366;-0.222;2024-01-06T07:13:30;101149.70;;;8.04;71.64
75745;BME280;74462;51.366;-0.222;2024-01-06T07:14:34;101152.15;;;8.05;72.08
75745;BME280;74462;51.366;-0.222;2024-01-06T07:15:39;101152.11;;;8.05;72.08
75745;BME280;74462;51.366;-0.222;2024-01-06T07:16:44;101155.75;;;8.07;72.13
75745;BME280;74462;51.366;-0.222;2024-01-06T07:17:49;101156.41;;;8.07;72.16
75745;BME280;74462;51.366;-0.222;2024-01-06T07:18:53;101156.95;;;8.10;72.09
75745;BME280;74462;51.366;-0.222;2024-01-06T07:19:58;101158.83;;;8.11;72.31
75745;BME280;74462;51.366;-0.222;2024-01-06T07:21:02;101159.34;;;8.11;72.20
75745;BME280;74462;51.366;-0.222;2024-01-06T07:22:09;101162.85;;;8.12;71.67
75745;BME280;74462;51.366;-0.222;2024-01-06T07:23:14;101164.95;;;8.12;71.62
75745;BME280;74462;51.366;-0.222;2024-01-06T07:24:19;101165.29;;;8.12;71.59
75745;BME280;74462;51.366;-0.222;2024-01-06T07:25:23;101169.20;;;8.12;71.51
75745;BME280;74462;51.366;-0.222;2024-01-06T07:26:28;101171.86;;;8.12;71.87
75745;BME280;74462;51.366;-0.222;2024-01-06T07:27:32;101175.37;;;8.12;71.76
75745;BME280;74462;51.366;-0.222;2024-01-06T07:28:37;101173.95;;;8.12;71.79
75745;BME280;74462;51.366;-0.222;2024-01-06T07:29:41;101180.77;;;8.13;72.34
75745;BME280;74462;51.366;-0.222;2024-01-06T07:30:46;101181.81;;;8.14;72.25
75745;BME280;74462;51.366;-0.222;2024-01-06T07:31:50;101186.00;;;8.15;72.27
75745;BME280;74462;51.366;-0.222;2024-01-06T07:32:55;101187.95;;;8.15;72.21
75745;BME280;74462;51.366;-0.222;2024-01-06T07:33:59;101192.80;;;8.13;71.99
75745;BME280;74462;51.366;-0.222;2024-01-06T07:35:04;101195.10;;;8.14;71.48
75745;BME280;74462;51.366;-0.222;2024-01-06T07:36:09;101199.64;;;8.14;72.05
75745;BME280;74462;51.366;-0.222;2024-01-06T07:37:13;101205.48;;;8.14;71.52
75745;BME280;74462;51.366;-0.222;2024-01-06T07:38:18;101204.00;;;8.15;71.50
75745;BME280;74462;51.366;-0.222;2024-01-06T07:39:23;101209.44;;;8.16;71.86
75745;BME280;74462;51.366;-0.222;2024-01-06T07:40:28;101208.89;;;8.16;71.64
75745;BME280;74462;51.366;-0.222;2024-01-06T07:41:32;101210.21;;;8.18;71.56
75745;BME280;74462;51.366;-0.222;2024-01-06T07:42:37;101212.48;;;8.18;71.65
75745;BME280;74462;51.366;-0.222;2024-01-06T07:43:41;101213.61;;;8.20;71.70
75745;BME280;74462;51.366;-0.222;2024-01-06T07:44:45;101213.40;;;8.20;71.64
75745;BME280;74462;51.366;-0.222;2024-01-06T07:45:50;101214.23;;;8.21;71.75
75745;BME280;74462;51.366;-0.222;2024-01-06T07:46:55;101217.35;;;8.22;71.40
75745;BME280;74462;51.366;-0.222;2024-01-06T07:47:59;101215.77;;;8.22;71.15
75745;BME280;74462;51.366;-0.222;2024-01-06T07:49:05;101217.73;;;8.22;71.12
75745;BME280;74462;51.366;-0.222;2024-01-06T07:50:10;101217.58;;;8.21;71.23
75745;BME280;74462;51.366;-0.222;2024-01-06T07:51:15;101223.45;;;8.21;71.32
75745;BME280;74462;51.366;-0.222;2024-01-06T07:52:20;101220.63;;;8.21;71.48
75745;BME280;74462;51.366;-0.222;2024-01-06T07:53:24;101219.69;;;8.22;71.25
75745;BME280;74462;51.366;-0.222;2024-01-06T07:54:29;101220.91;;;8.19;71.52
75745;BME280;74462;51.366;-0.222;2024-01-06T07:55:34;101223.93;;;8.19;71.45
75745;BME280;74462;51.366;-0.222;2024-01-06T07:56:38;101223.06;;;8.16;71.06
75745;BME280;74462;51.366;-0.222;2024-01-06T07:57:43;101225.23;;;8.15;71.06
75745;BME280;74462;51.366;-0.222;2024-01-06T07:58:48;101224.31;;;8.16;71.23
75745;BME280;74462;51.366;-0.222;2024-01-06T07:59:52;101221.69;;;8.16;70.68
75745;BME280;74462;51.366;-0.222;2024-01-06T08:00:56;101225.05;;;8.15;70.51
75745;BME280;74462;51.366;-0.222;2024-01-06T08:02:01;101224.23;;;8.17;70.78
75745;BME280;74462;51.366;-0.222;2024-01-06T08:03:05;101229.08;;;8.19;71.21
75745;BME280;74462;51.366;-0.222;2024-01-06T08:04:10;101229.72;;;8.20;71.20
75745;BME280;74462;51.366;-0.222;2024-01-06T08:05:15;101232.05;;;8.19;70.92
75745;BME280;74462;51.366;-0.222;2024-01-06T08:06:19;101234.05;;;8.21;71.08
75745;BME280;74462;51.366;-0.222;2024-01-06T08:07:24;101234.04;;;8.21;71.28
75745;BME280;74462;51.366;-0.222;2024-01-06T08:08:28;101235.33;;;8.21;71.28
75745;BME280;74462;51.366;-0.222;2024-01-06T08:09:33;101239.59;;;8.20;70.48
75745;BME280;74462;51.366;-0.222;2024-01-06T08:10:38;101240.73;;;8.19;70.22
75745;BME280;74462;51.366;-0.222;2024-01-06T08:11:43;101242.30;;;8.19;70.85
75745;BME280;74462;51.366;-0.222;2024-01-06T08:12:51;101244.40;;;8.20;70.84
75745;BME280;74462;51.366;-0.222;2024-01-06T08:13:56;101242.19;;;8.18;71.09
75745;BME280;74462;51.366;-0.222;2024-01-06T08:15:00;101244.42;;;8.19;71.03
75745;BME280;74462;51.366;-0.222;2024-01-06T08:16:06;101246.36;;;8.20;71.02
75745;BME280;74462;51.366;-0.222;2024-01-06T08:17:11;101248.16;;;8.19;70.94
75745;BME280;74462;51.366;-0.222;2024-01-06T08:18:15;101248.88;;;8.19;70.95
75745;BME280;74462;51.366;-0.222;2024-01-06T08:19:21;101251.17;;;8.19;71.11
75745;BME280;74462;51.366;-0.222;2024-01-06T08:20:25;101250.73;;;8.18;70.37
75745;BME280;74462;51.366;-0.222;2024-01-06T08:21:30;101254.41;;;8.15;70.96
75745;BME280;74462;51.366;-0.222;2024-01-06T08:22:35;101255.74;;;8.14;70.97
75745;BME280;74462;51.366;-0.222;2024-01-06T08:23:39;101258.13;;;8.15;71.26
75745;BME280;74462;51.366;-0.222;2024-01-06T08:24:44;101260.06;;;8.16;71.23
75745;BME280;74462;51.366;-0.222;2024-01-06T08:25:50;101262.63;;;8.14;70.83
75745;BME280;74462;51.366;-0.222;2024-01-06T08:26:54;101267.64;;;8.16;70.94
75745;BME280;74462;51.366;-0.222;2024-01-06T08:27:58;101266.91;;;8.16;71.12
75745;BME280;74462;51.366;-0.222;2024-01-06T08:29:03;101271.16;;;8.19;70.95
75745;BME280;74462;51.366;-0.222;2024-01-06T08:30:09;101272.68;;;8.20;71.07
75745;BME280;74462;51.366;-0.222;2024-01-06T08:31:14;101274.75;;;8.21;71.10
75745;BME280;74462;51.366;-0.222;2024-01-06T08:32:19;101277.88;;;8.22;71.28
75745;BME280;74462;51.366;-0.222;2024-01-06T08:33:24;101278.66;;;8.21;71.10
75745;BME280;74462;51.366;-0.222;2024-01-06T08:34:29;101280.17;;;8.22;71.47
75745;BME280;74462;51.366;-0.222;2024-01-06T08:35:33;101283.67;;;8.23;71.08
75745;BME280;74462;51.366;-0.222;2024-01-06T08:36:43;101285.80;;;8.35;77.91
75745;BME280;74462;51.366;-0.222;2024-01-06T08:37:48;101287.59;;;8.46;81.47
75745;BME280;74462;51.366;-0.222;2024-01-06T08:38:52;101286.42;;;8.42;75.41
75745;BME280;74462;51.366;-0.222;2024-01-06T08:39:57;101286.59;;;8.50;77.62
75745;BME280;74462;51.366;-0.222;2024-01-06T08:41:01;101290.33;;;8.50;74.02
75745;BME280;74462;51.366;-0.222;2024-01-06T08:42:06;101290.98;;;8.51;72.70
75745;BME280;74462;51.366;-0.222;2024-01-06T08:43:11;101289.63;;;8.47;71.01
75745;BME280;74462;51.366;-0.222;2024-01-06T08:44:15;101291.80;;;8.46;71.05
75745;BME280;74462;51.366;-0.222;2024-01-06T08:45:20;101293.05;;;8.46;70.75
75745;BME280;74462;51.366;-0.222;2024-01-06T08:46:25;101295.97;;;8.45;70.59
75745;BME280;74462;51.366;-0.222;2024-01-06T08:47:30;101296.98;;;8.43;70.28
75745;BME280;74462;51.366;-0.222;2024-01-06T08:48:34;101299.14;;;8.42;70.22
75745;BME280;74462;51.366;-0.222;2024-01-06T08:49:39;101296.94;;;8.43;70.75
75745;BME280;74462;51.366;-0.222;2024-01-06T08:50:44;101299.39;;;8.41;70.66
75745;BME280;74462;51.366;-0.222;2024-01-06T08:51:49;101299.30;;;8.40;70.39
75745;BME280;74462;51.366;-0.222;2024-01-06T08:52:54;101304.70;;;8.41;70.44
75745;BME280;74462;51.366;-0.222;2024-01-06T08:53:58;101306.84;;;8.41;70.29
75745;BME280;74462;51.366;-0.222;2024-01-06T08:55:04;101309.01;;;8.40;70.40
75745;BME280;74462;51.366;-0.222;2024-01-06T08:56:08;101310.11;;;8.40;70.52
75745;BME280;74462;51.366;-0.222;2024-01-06T08:57:13;101320.30;;;8.38;70.43
75745;BME280;74462;51.366;-0.222;2024-01-06T08:58:17;101323.92;;;8.36;70.24
75745;BME280;74462;51.366;-0.222;2024-01-06T08:59:22;101321.23;;;8.34;70.08
75745;BME280;74462;51.366;-0.222;2024-01-06T09:00:26;101322.19;;;8.33;70.03
75745;BME280;74462;51.366;-0.222;2024-01-06T09:01:31;101323.14;;;8.32;69.90
75745;BME280;74462;51.366;-0.222;2024-01-06T09:02:37;101325.61;;;8.31;70.07
75745;BME280;74462;51.366;-0.222;2024-01-06T09:03:42;101324.59;;;8.31;70.17
75745;BME280;74462;51.366;-0.222;2024-01-06T09:04:46;101326.09;;;8.29;70.06
75745;BME280;74462;51.366;-0.222;2024-01-06T09:05:51;101323.27;;;8.29;69.96
75745;BME280;74462;51.366;-0.222;2024-01-06T09:06:55;101332.49;;;8.29;70.32
75745;BME280;74462;51.366;-0.222;2024-01-06T09:08:00;101329.04;;;8.30;70.02
75745;BME280;74462;51.366;-0.222;2024-01-06T09:09:06;101332.95;;;8.33;70.00
75745;BME280;74462;51.366;-0.222;2024-01-06T09:10:11;101337.16;;;8.34;70.10
75745;BME280;74462;51.366;-0.222;2024-01-06T09:11:16;101336.48;;;8.34;69.89